Jamaica Beach, Texas
Current Conditions -  °F | °C
As of 2:35 AM on Friday 19 Dec 2014 (Local Time) from KGLS Reporting Station
Haze Haze  
Wind Chill: 62°   Ceiling: 400
Heat Index: 62°   Visibility: 2.5mi
Dew Point: 62°   Wind: 7mph
Humidity: 100%   Direction: 60°ENE
Pressure: 30"   Gusts: NA
Location:  29.3093°N, 94.7816°W
Report Text: KGLS 190835Z AUTO 06006KT 2 1/2SM BR BKN004 BKN012 OVC024 17/17 A3000 RMK AO1 P0016 T01670167
Loading
Personal Weather Stations






























Interactive Weather Map New forecast layout! Learn more

10-Day Weather Forecast

Advertisements
Track Severe Weather on mobile